Latest Weather Observations for North Head

IDN60801

Issued at 5:32 pm EST Sunday 5 July 2015 (issued every 30 minutes, with the page automatically refreshed every 10 minutes)

About weather observations | Map of weather stations | Latest weather observations for NSW | Other Formats
Station Details ID: 066197 Name: NORTH HEAD Lat: -33.82 Lon: 151.30 Height: 90.0 m
Data from the previous 72 hours. | See also: Recent months for locations in New South Wales
Date/Time
EST
Temp
°C
App
Temp
°C
Dew
Point
Rel
Hum
%
Delta-T
°C
Wind Press
QNH
hPa
Press
MSL
hPa
Rain
since 9 am
mm
Dir
 
Spd
km/h
Gust
km/h
Spd
kts
Gust
kts
05/05:30pm - - - - - N 9 11 5 6 - - -
05/05:00pm - - - - - N 9 11 5 6 - - -
05/04:30pm - - - - - NNE 9 13 5 7 - - -
05/04:00pm - - - - - NNE 9 15 5 8 - - -
05/03:30pm - - - - - NNE 9 13 5 7 - - -
05/03:00pm - - - - - NNE 9 13 5 7 - - -
05/02:30pm - - - - - NNE 9 13 5 7 - - -
05/02:00pm - - - - - NNE 9 15 5 8 - - -
05/01:30pm - - - - - NNE 9 13 5 7 - - -
05/01:00pm - - - - - NNE 9 13 5 7 - - -
05/12:30pm - - - - - NE 6 11 3 6 - - -
05/12:00pm - - - - - NW 4 7 2 4 - - -
05/11:30am - - - - - WNW 7 11 4 6 - - -
05/11:00am - - - - - WNW 11 15 6 8 - - -
05/10:30am - - - - - W 11 15 6 8 - - -
05/10:00am - - - - - W 13 19 7 10 - - -
05/09:30am - - - - - W 17 22 9 12 - - -
05/09:00am - - - - - W 19 24 10 13 - - -
05/08:30am - - - - - W 19 22 10 12 - - -
05/08:00am - - - - - WNW 19 24 10 13 - - -
05/07:30am - - - - - W 19 22 10 12 - - -
05/07:00am - - - - - W 17 22 9 12 - - -
05/06:30am - - - - - W 19 22 10 12 - - -
05/06:00am - - - - - W 17 20 9 11 - - -
05/05:30am - - - - - W 17 22 9 12 - - -
05/05:00am - - - - - W 20 26 11 14 - - -
05/04:30am - - - - - W 22 28 12 15 - - -
05/04:00am - - - - - WNW 20 24 11 13 - - -
05/03:30am - - - - - WNW 19 22 10 12 - - -
05/03:00am - - - - - W 20 24 11 13 - - -
05/02:30am - - - - - W 20 26 11 14 - - -
05/02:00am - - - - - W 17 22 9 12 - - -
05/01:30am - - - - - W 17 24 9 13 - - -
05/01:00am - - - - - W 17 22 9 12 - - -
05/12:30am - - - - - W 17 24 9 13 - - -
05/12:00am - - - - - W 17 24 9 13 - - -
 
Date/Time
EST
Temp
°C
App
Temp
°C
Dew
Point
Rel
Hum
%
Delta-T
°C
Wind Press
QNH
hPa
Press
MSL
hPa
Rain
since 9 am
mm
Dir
 
Spd
km/h
Gust
km/h
Spd
kts
Gust
kts
04/11:30pm - - - - - W 17 22 9 12 - - -
04/11:00pm - - - - - W 17 24 9 13 - - -
04/10:30pm - - - - - W 19 24 10 13 - - -
04/10:00pm - - - - - W 17 20 9 11 - - -
04/09:30pm - - - - - W 17 28 9 15 - - -
04/09:00pm - - - - - W 13 19 7 10 - - -
04/08:30pm - - - - - WNW 9 15 5 8 - - -
04/08:00pm - - - - - W 7 9 4 5 - - -
04/07:30pm - - - - - WSW 6 7 3 4 - - -
04/07:00pm - - - - - W 4 6 2 3 - - -
04/06:30pm - - - - - W 4 6 2 3 - - -
04/06:00pm - - - - - W 4 6 2 3 - - -
04/05:30pm - - - - - S 7 11 4 6 - - -
04/05:00pm - - - - - S 7 9 4 5 - - -
04/04:30pm - - - - - S 7 11 4 6 - - -
04/04:00pm - - - - - WSW 4 7 2 4 - - -
04/03:30pm - - - - - W 9 13 5 7 - - -
04/03:00pm - - - - - W 9 17 5 9 - - -
04/02:30pm - - - - - WSW 9 13 5 7 - - -
04/02:00pm - - - - - WSW 11 17 6 9 - - -
04/01:30pm - - - - - WSW 11 17 6 9 - - -
04/01:00pm - - - - - SW 11 17 6 9 - - -
04/12:30pm - - - - - W 11 15 6 8 - - -
04/12:00pm - - - - - WNW 11 15 6 8 - - -
04/11:30am - - - - - NW 7 11 4 6 - - -
04/11:00am - - - - - WNW 11 15 6 8 - - -
04/10:30am - - - - - WNW 13 17 7 9 - - -
04/10:00am - - - - - W 13 19 7 10 - - -
04/09:30am - - - - - NW 11 17 6 9 - - -
04/09:00am - - - - - WNW 9 15 5 8 - - -
04/08:30am - - - - - WNW 13 20 7 11 - - -
04/08:00am - - - - - WNW 11 15 6 8 - - -
04/07:30am - - - - - WNW 13 17 7 9 - - -
04/07:00am - - - - - WNW 11 17 6 9 - - -
04/06:30am - - - - - WNW 15 20 8 11 - - -
04/06:00am - - - - - WNW 17 22 9 12 - - -
04/05:30am - - - - - WNW 15 19 8 10 - - -
04/05:00am - - - - - W 15 19 8 10 - - -
04/04:30am - - - - - W 15 19 8 10 - - -
04/04:00am - - - - - WNW 11 13 6 7 - - -
04/03:30am - - - - - WNW 11 15 6 8 - - -
04/03:00am - - - - - WNW 13 15 7 8 - - -
04/02:30am - - - - - W 13 17 7 9 - - -
04/02:00am - - - - - W 11 13 6 7 - - -
04/01:30am - - - - - W 11 15 6 8 - - -
04/01:00am - - - - - WNW 13 17 7 9 - - -
04/12:30am - - - - - W 11 15 6 8 - - -
04/12:00am - - - - - W 13 17 7 9 - - -
 
Date/Time
EST
Temp
°C
App
Temp
°C
Dew
Point
Rel
Hum
%
Delta-T
°C
Wind Press
QNH
hPa
Press
MSL
hPa
Rain
since 9 am
mm
Dir
 
Spd
km/h
Gust
km/h
Spd
kts
Gust
kts
03/11:30pm - - - - - W 11 13 6 7 - - -
03/11:00pm - - - - - W 7 7 4 4 - - -
03/10:30pm - - - - - W 6 6 3 3 - - -
03/10:00pm - - - - - W 6 6 3 3 - - -
03/09:30pm - - - - - W 6 7 3 4 - - -
03/09:00pm - - - - - WNW 4 6 2 3 - - -
03/08:30pm - - - - - W 6 7 3 4 - - -
03/08:00pm - - - - - W 6 7 3 4 - - -
03/07:30pm - - - - - W 7 9 4 5 - - -
03/07:00pm - - - - - WSW 6 9 3 5 - - -
03/06:30pm - - - - - WSW 6 7 3 4 - - -
03/06:00pm - - - - - SW 6 9 3 5 - - -
03/05:30pm - - - - - SW 7 9 4 5 - - -
03/05:00pm - - - - - S 6 9 3 5 - - -
03/04:30pm - - - - - SSW 9 17 5 9 - - -
03/04:00pm - - - - - S 9 17 5 9 - - -
03/03:30pm - - - - - S 11 19 6 10 - - -
03/03:00pm - - - - - S 15 22 8 12 - - -
03/02:30pm - - - - - S 15 24 8 13 - - -
03/02:00pm - - - - - S 17 26 9 14 - - -
03/01:30pm - - - - - S 17 26 9 14 - - -
03/01:00pm - - - - - SSW 17 26 9 14 - - -
03/12:30pm - - - - - SSW 17 26 9 14 - - -
03/12:00pm - - - - - SSW 19 30 10 16 - - -
03/11:30am - - - - - SW 13 22 7 12 - - -
03/11:00am - - - - - WSW 15 22 8 12 - - -
03/10:30am - - - - - W 15 22 8 12 - - -
03/10:00am - - - - - W 15 22 8 12 - - -
03/09:30am - - - - - W 15 22 8 12 - - -
03/09:00am - - - - - W 19 28 10 15 - - -
03/08:30am - - - - - W 17 28 9 15 - - -
03/08:00am - - - - - W 17 22 9 12 - - -
03/07:30am - - - - - W 22 30 12 16 - - -
03/07:00am - - - - - W 19 28 10 15 - - -
03/06:30am - - - - - W 20 30 11 16 - - -
03/06:00am - - - - - W 19 28 10 15 - - -
03/05:30am - - - - - WSW 17 24 9 13 - - -
03/05:00am - - - - - W 22 39 12 21 - - -
03/04:30am - - - - - W 22 32 12 17 - - -
03/04:00am - - - - - W 19 28 10 15 - - -
03/03:30am - - - - - W 17 22 9 12 - - -
03/03:00am - - - - - W 17 28 9 15 - - -
03/02:30am - - - - - W 19 24 10 13 - - -
03/02:00am - - - - - W 20 33 11 18 - - -
03/01:30am - - - - - WSW 20 33 11 18 - - -
03/01:00am - - - - - WSW 20 30 11 16 - - -
03/12:30am - - - - - WSW 20 32 11 17 - - -
03/12:00am - - - - - WSW 22 32 12 17 - - -
 
Date/Time
EST
Temp
°C
App
Temp
°C
Dew
Point
Rel
Hum
%
Delta-T
°C
Wind Press
QNH
hPa
Press
MSL
hPa
Rain
since 9 am
mm
Dir
 
Spd
km/h
Gust
km/h
Spd
kts
Gust
kts
02/11:30pm - - - - - WSW 19 33 10 18 - - -
02/11:00pm - - - - - SW 24 37 13 20 - - -
02/10:30pm - - - - - SW 24 35 13 19 - - -
02/10:00pm - - - - - SW 24 39 13 21 - - -
02/09:30pm - - - - - SW 20 35 11 19 - - -
02/09:00pm - - - - - WSW 22 41 12 22 - - -
02/08:30pm - - - - - WSW 26 41 14 22 - - -
02/08:00pm - - - - - WSW 26 41 14 22 - - -
02/07:30pm - - - - - SW 24 39 13 21 - - -
02/07:00pm - - - - - WSW 24 43 13 23 - - -
02/06:31pm - - - - - WSW 30 48 16 26 - - -
02/06:30pm - - - - - WSW 28 46 15 25 - - -
02/06:00pm - - - - - W 35 54 19 29 - - -

Other Formats:

Comma delimited format used in spreadsheet applications
http://www.bom.gov.au/fwo/IDN60801/IDN60801.95768.axf

JavaScript Object Notation format (JSON) in row-major order
http://www.bom.gov.au/fwo/IDN60801/IDN60801.95768.json